sensor_id;sensor_type;location;lat;lon;timestamp;pressure;altitude;pressure_sealevel;temperature;humidity
13011;BME280;6786;57.632;11.962;2024-03-02T00:01:24;100300.31;;;18.11;46.06
13011;BME280;6786;57.632;11.962;2024-03-02T00:03:54;100289.63;;;18.11;46.11
13011;BME280;6786;57.632;11.962;2024-03-02T00:06:22;100290.44;;;18.11;45.99
13011;BME280;6786;57.632;11.962;2024-03-02T00:08:57;100288.91;;;18.09;46.19
13011;BME280;6786;57.632;11.962;2024-03-02T00:11:26;100291.56;;;18.09;46.23
13011;BME280;6786;57.632;11.962;2024-03-02T00:13:54;100291.56;;;18.09;46.18
13011;BME280;6786;57.632;11.962;2024-03-02T00:16:23;100301.28;;;18.10;46.20
13011;BME280;6786;57.632;11.962;2024-03-02T00:18:53;100304.81;;;18.10;46.08
13011;BME280;6786;57.632;11.962;2024-03-02T00:21:27;100289.63;;;18.11;46.16
13011;BME280;6786;57.632;11.962;2024-03-02T00:23:55;100296.66;;;18.12;46.07
13011;BME280;6786;57.632;11.962;2024-03-02T00:26:24;100293.97;;;18.12;46.10
13011;BME280;6786;57.632;11.962;2024-03-02T00:28:54;100304.66;;;18.12;46.02
13011;BME280;6786;57.632;11.962;2024-03-02T00:31:24;100305.66;;;18.11;45.96
13011;BME280;6786;57.632;11.962;2024-03-02T00:33:54;100293.25;;;18.10;46.05
13011;BME280;6786;57.632;11.962;2024-03-02T00:36:24;100294.97;;;18.11;46.00
13011;BME280;6786;57.632;11.962;2024-03-02T00:38:54;100309.28;;;18.10;46.03
13011;BME280;6786;57.632;11.962;2024-03-02T00:41:25;100310.16;;;18.10;46.10
13011;BME280;6786;57.632;11.962;2024-03-02T00:43:58;100311.97;;;18.10;46.10
13011;BME280;6786;57.632;11.962;2024-03-02T00:46:28;100308.47;;;18.09;46.05
13011;BME280;6786;57.632;11.962;2024-03-02T00:49:00;100317.31;;;18.10;46.15
13011;BME280;6786;57.632;11.962;2024-03-02T00:51:30;100316.38;;;18.11;45.99
13011;BME280;6786;57.632;11.962;2024-03-02T00:54:03;100318.03;;;18.12;46.07
13011;BME280;6786;57.632;11.962;2024-03-02T00:56:33;100317.19;;;18.11;45.97
13011;BME280;6786;57.632;11.962;2024-03-02T00:59:02;100276.34;;;17.90;45.99
13011;BME280;6786;57.632;11.962;2024-03-02T01:01:32;100318.03;;;18.12;46.08
13011;BME280;6786;57.632;11.962;2024-03-02T01:04:02;100317.91;;;18.13;45.98
13011;BME280;6786;57.632;11.962;2024-03-02T01:06:30;100307.34;;;18.12;46.06
13011;BME280;6786;57.632;11.962;2024-03-02T01:08:59;100309.28;;;18.10;45.94
13011;BME280;6786;57.632;11.962;2024-03-02T01:11:27;100317.75;;;18.15;45.97
13011;BME280;6786;57.632;11.962;2024-03-02T01:13:57;100316.09;;;18.14;46.06
13011;BME280;6786;57.632;11.962;2024-03-02T01:16:25;100321.44;;;18.14;45.98
13011;BME280;6786;57.632;11.962;2024-03-02T01:18:53;100310.88;;;18.12;46.06
13011;BME280;6786;57.632;11.962;2024-03-02T01:21:24;100289.00;;;17.98;46.02
13011;BME280;6786;57.632;11.962;2024-03-02T01:23:52;100319.72;;;18.13;45.96
13011;BME280;6786;57.632;11.962;2024-03-02T01:26:20;100313.53;;;18.12;46.03
13011;BME280;6786;57.632;11.962;2024-03-02T01:28:48;100319.72;;;18.13;46.01
13011;BME280;6786;57.632;11.962;2024-03-02T01:31:17;100326.19;;;18.10;46.06
13011;BME280;6786;57.632;11.962;2024-03-02T01:33:45;100318.75;;;18.14;45.99
13011;BME280;6786;57.632;11.962;2024-03-02T01:36:13;100315.94;;;18.15;45.99
13011;BME280;6786;57.632;11.962;2024-03-02T01:38:43;100301.72;;;18.15;45.92
13011;BME280;6786;57.632;11.962;2024-03-02T01:41:11;100308.75;;;18.16;45.86
13011;BME280;6786;57.632;11.962;2024-03-02T01:43:40;100308.75;;;18.16;45.91
13011;BME280;6786;57.632;11.962;2024-03-02T01:46:08;100312.41;;;18.15;45.98
13011;BME280;6786;57.632;11.962;2024-03-02T01:48:37;100313.41;;;18.14;45.89
13011;BME280;6786;57.632;11.962;2024-03-02T01:51:06;100307.34;;;18.12;45.99
13011;BME280;6786;57.632;11.962;2024-03-02T01:53:35;100292.97;;;18.13;46.01
13011;BME280;6786;57.632;11.962;2024-03-02T01:56:05;100291.03;;;18.15;45.93
13011;BME280;6786;57.632;11.962;2024-03-02T01:58:34;100285.94;;;18.12;45.90
13011;BME280;6786;57.632;11.962;2024-03-02T02:01:03;100285.66;;;18.15;45.96
13011;BME280;6786;57.632;11.962;2024-03-02T02:03:32;100281.03;;;18.17;46.05
13011;BME280;6786;57.632;11.962;2024-03-02T02:06:00;100276.66;;;18.16;45.91
13011;BME280;6786;57.632;11.962;2024-03-02T02:08:28;100266.81;;;18.16;45.92
13011;BME280;6786;57.632;11.962;2024-03-02T02:10:57;100273.00;;;18.17;45.94
13011;BME280;6786;57.632;11.962;2024-03-02T02:13:27;100271.31;;;18.16;45.89
13011;BME280;6786;57.632;11.962;2024-03-02T02:15:55;100269.63;;;18.15;46.04
13011;BME280;6786;57.632;11.962;2024-03-02T02:18:23;100277.66;;;18.15;46.00
13011;BME280;6786;57.632;11.962;2024-03-02T02:20:51;100261.59;;;18.15;46.02
13011;BME280;6786;57.632;11.962;2024-03-02T02:23:21;100258.94;;;18.15;45.90
13011;BME280;6786;57.632;11.962;2024-03-02T02:25:49;100255.53;;;18.13;45.96
13011;BME280;6786;57.632;11.962;2024-03-02T02:28:17;100260.88;;;18.13;46.00
13011;BME280;6786;57.632;11.962;2024-03-02T02:30:46;100250.19;;;18.13;45.90
13011;BME280;6786;57.632;11.962;2024-03-02T02:33:14;100253.84;;;18.12;45.89
13011;BME280;6786;57.632;11.962;2024-03-02T02:35:42;100250.19;;;18.13;45.99
13011;BME280;6786;57.632;11.962;2024-03-02T02:38:10;100246.56;;;18.14;45.85
13011;BME280;6786;57.632;11.962;2024-03-02T02:40:40;100239.50;;;18.13;45.93
13011;BME280;6786;57.632;11.962;2024-03-02T02:43:09;100240.47;;;18.12;45.88
13011;BME280;6786;57.632;11.962;2024-03-02T02:45:37;100239.50;;;18.13;45.97
13011;BME280;6786;57.632;11.962;2024-03-02T02:48:05;100231.31;;;18.14;45.87
13011;BME280;6786;57.632;11.962;2024-03-02T02:50:34;100223.44;;;18.13;45.91
13011;BME280;6786;57.632;11.962;2024-03-02T02:53:02;100224.31;;;18.13;45.92
13011;BME280;6786;57.632;11.962;2024-03-02T02:55:30;100212.75;;;18.13;45.93
13011;BME280;6786;57.632;11.962;2024-03-02T02:58:00;100210.06;;;18.13;46.00
13011;BME280;6786;57.632;11.962;2024-03-02T03:00:28;100207.41;;;18.13;45.89
13011;BME280;6786;57.632;11.962;2024-03-02T03:02:57;100207.41;;;18.13;45.96
13011;BME280;6786;57.632;11.962;2024-03-02T03:05:25;100211.34;;;18.09;46.11
13011;BME280;6786;57.632;11.962;2024-03-02T03:07:53;100209.38;;;18.11;45.92
13011;BME280;6786;57.632;11.962;2024-03-02T03:10:22;100214.75;;;18.11;45.93
13011;BME280;6786;57.632;11.962;2024-03-02T03:12:52;100213.75;;;18.12;45.98
13011;BME280;6786;57.632;11.962;2024-03-02T03:15:24;100218.09;;;18.13;45.94
13011;BME280;6786;57.632;11.962;2024-03-02T03:17:52;100218.94;;;18.13;45.93
13011;BME280;6786;57.632;11.962;2024-03-02T03:20:21;100218.09;;;18.13;45.94
13011;BME280;6786;57.632;11.962;2024-03-02T03:22:50;100221.75;;;18.12;45.99
13011;BME280;6786;57.632;11.962;2024-03-02T03:25:18;100216.41;;;18.12;45.96
13011;BME280;6786;57.632;11.962;2024-03-02T03:27:46;100220.09;;;18.11;46.00
13011;BME280;6786;57.632;11.962;2024-03-02T03:30:15;100217.56;;;18.09;45.91
13011;BME280;6786;57.632;11.962;2024-03-02T03:32:45;100218.38;;;18.10;45.93
13011;BME280;6786;57.632;11.962;2024-03-02T03:35:14;100222.03;;;18.09;46.04
13011;BME280;6786;57.632;11.962;2024-03-02T03:37:43;100218.38;;;18.10;46.12
13011;BME280;6786;57.632;11.962;2024-03-02T03:40:11;100217.56;;;18.09;46.15
13011;BME280;6786;57.632;11.962;2024-03-02T03:42:41;100222.03;;;18.09;46.02
13011;BME280;6786;57.632;11.962;2024-03-02T03:45:09;100213.03;;;18.10;46.11
13011;BME280;6786;57.632;11.962;2024-03-02T03:47:37;100204.31;;;18.08;45.93
13011;BME280;6786;57.632;11.962;2024-03-02T03:50:08;100207.69;;;18.10;46.05
13011;BME280;6786;57.632;11.962;2024-03-02T03:52:36;100217.41;;;18.11;45.93
13011;BME280;6786;57.632;11.962;2024-03-02T03:55:05;100220.09;;;18.11;46.05
13011;BME280;6786;57.632;11.962;2024-03-02T03:57:33;100223.72;;;18.10;45.98
13011;BME280;6786;57.632;11.962;2024-03-02T04:00:02;100216.69;;;18.09;46.06
13011;BME280;6786;57.632;11.962;2024-03-02T04:02:31;100223.72;;;18.10;45.96
13011;BME280;6786;57.632;11.962;2024-03-02T04:04:59;100220.09;;;18.11;46.00
13011;BME280;6786;57.632;11.962;2024-03-02T04:07:29;100212.22;;;18.09;45.94
13011;BME280;6786;57.632;11.962;2024-03-02T04:09:57;100210.34;;;18.10;46.05
13011;BME280;6786;57.632;11.962;2024-03-02T04:12:25;100213.03;;;18.10;45.97
13011;BME280;6786;57.632;11.962;2024-03-02T04:14:53;100213.03;;;18.10;45.90
13011;BME280;6786;57.632;11.962;2024-03-02T04:17:22;100200.66;;;18.09;46.00
13011;BME280;6786;57.632;11.962;2024-03-02T04:19:50;100206.84;;;18.09;45.94
13011;BME280;6786;57.632;11.962;2024-03-02T04:22:18;100191.91;;;18.07;46.03
13011;BME280;6786;57.632;11.962;2024-03-02T04:24:53;100197.84;;;18.10;45.92
13011;BME280;6786;57.632;11.962;2024-03-02T04:27:21;100198.84;;;18.09;45.89
13011;BME280;6786;57.632;11.962;2024-03-02T04:29:50;100195.31;;;18.09;46.04
13011;BME280;6786;57.632;11.962;2024-03-02T04:32:18;100201.50;;;18.09;46.04
13011;BME280;6786;57.632;11.962;2024-03-02T04:34:47;100191.91;;;18.07;45.95
13011;BME280;6786;57.632;11.962;2024-03-02T04:37:15;100100.50;;;17.55;46.00
13011;BME280;6786;57.632;11.962;2024-03-02T04:39:44;100186.56;;;18.07;45.97
13011;BME280;6786;57.632;11.962;2024-03-02T04:42:13;100191.63;;;18.10;45.94
13011;BME280;6786;57.632;11.962;2024-03-02T04:44:42;100191.63;;;18.10;46.07
13011;BME280;6786;57.632;11.962;2024-03-02T04:47:10;100184.31;;;18.12;45.93
13011;BME280;6786;57.632;11.962;2024-03-02T04:49:39;100197.25;;;18.07;45.98
13011;BME280;6786;57.632;11.962;2024-03-02T04:52:08;100201.38;;;18.11;45.92
13011;BME280;6786;57.632;11.962;2024-03-02T04:54:36;100195.03;;;18.12;45.98
13011;BME280;6786;57.632;11.962;2024-03-02T04:57:26;100211.63;;;18.15;45.92
13011;BME280;6786;57.632;11.962;2024-03-02T04:59:53;100193.06;;;18.14;45.97
13011;BME280;6786;57.632;11.962;2024-03-02T05:02:21;100187.84;;;18.12;46.04
13011;BME280;6786;57.632;11.962;2024-03-02T05:04:49;100151.41;;;17.83;45.93
13011;BME280;6786;57.632;11.962;2024-03-02T05:07:18;100198.69;;;18.11;46.01
13011;BME280;6786;57.632;11.962;2024-03-02T05:09:46;100189.66;;;18.12;45.98
13011;BME280;6786;57.632;11.962;2024-03-02T05:12:15;100188.00;;;18.11;45.99
13011;BME280;6786;57.632;11.962;2024-03-02T05:15:09;100186.00;;;18.13;45.95
13011;BME280;6786;57.632;11.962;2024-03-02T05:17:38;100187.41;;;18.07;46.03
13011;BME280;6786;57.632;11.962;2024-03-02T05:20:07;100184.88;;;18.06;46.03
13011;BME280;6786;57.632;11.962;2024-03-02T05:22:36;100184.31;;;18.12;45.99
13011;BME280;6786;57.632;11.962;2024-03-02T05:25:05;100190.38;;;18.14;45.99
13011;BME280;6786;57.632;11.962;2024-03-02T05:27:34;100180.38;;;18.16;46.18
13011;BME280;6786;57.632;11.962;2024-03-02T05:30:02;100181.78;;;18.20;46.15
13011;BME280;6786;57.632;11.962;2024-03-02T05:32:34;100173.06;;;18.18;46.23
13011;BME280;6786;57.632;11.962;2024-03-02T05:35:03;100188.53;;;18.24;46.33
13011;BME280;6786;57.632;11.962;2024-03-02T05:37:33;100190.22;;;18.25;46.45
13011;BME280;6786;57.632;11.962;2024-03-02T05:40:01;100186.53;;;18.26;46.35
13011;BME280;6786;57.632;11.962;2024-03-02T05:42:30;100180.22;;;18.27;46.30
13011;BME280;6786;57.632;11.962;2024-03-02T05:44:58;100187.97;;;18.30;46.52
13011;BME280;6786;57.632;11.962;2024-03-02T05:47:26;100181.47;;;18.32;46.54
13011;BME280;6786;57.632;11.962;2024-03-02T05:49:56;100187.69;;;18.33;46.30
13011;BME280;6786;57.632;11.962;2024-03-02T05:52:25;100184.28;;;18.31;46.30
13011;BME280;6786;57.632;11.962;2024-03-02T05:54:53;100184.44;;;18.29;46.15
13011;BME280;6786;57.632;11.962;2024-03-02T05:57:22;100182.91;;;18.27;46.17
13011;BME280;6786;57.632;11.962;2024-03-02T06:00:07;100185.16;;;18.22;46.29
13011;BME280;6786;57.632;11.962;2024-03-02T06:02:39;100189.81;;;18.20;46.38
13011;BME280;6786;57.632;11.962;2024-03-02T06:05:09;100191.63;;;18.19;46.28
13011;BME280;6786;57.632;11.962;2024-03-02T06:07:37;100183.75;;;18.18;46.47
13011;BME280;6786;57.632;11.962;2024-03-02T06:10:06;100188.25;;;18.17;46.31
13011;BME280;6786;57.632;11.962;2024-03-02T06:12:39;100185.72;;;18.16;46.34
13011;BME280;6786;57.632;11.962;2024-03-02T06:15:09;100194.59;;;18.16;46.33
13011;BME280;6786;57.632;11.962;2024-03-02T06:17:37;100190.25;;;18.15;46.31
13011;BME280;6786;57.632;11.962;2024-03-02T06:20:07;100189.38;;;18.15;46.27
13011;BME280;6786;57.632;11.962;2024-03-02T06:22:37;100193.06;;;18.14;46.37
13011;BME280;6786;57.632;11.962;2024-03-02T06:25:06;100199.22;;;18.14;46.31
13011;BME280;6786;57.632;11.962;2024-03-02T06:27:35;100166.75;;;18.00;46.24
13011;BME280;6786;57.632;11.962;2024-03-02T06:30:04;100195.31;;;18.18;46.18
13011;BME280;6786;57.632;11.962;2024-03-02T06:32:33;100194.16;;;18.21;46.21
13011;BME280;6786;57.632;11.962;2024-03-02T06:35:02;100194.44;;;18.18;46.24
13011;BME280;6786;57.632;11.962;2024-03-02T06:37:31;100187.97;;;18.20;46.08
13011;BME280;6786;57.632;11.962;2024-03-02T06:40:01;100193.19;;;18.22;46.18
13011;BME280;6786;57.632;11.962;2024-03-02T06:42:30;100195.16;;;18.20;46.14
13011;BME280;6786;57.632;11.962;2024-03-02T06:45:01;100199.53;;;18.21;46.14
13011;BME280;6786;57.632;11.962;2024-03-02T06:47:29;100201.19;;;18.22;46.04
13011;BME280;6786;57.632;11.962;2024-03-02T06:49:57;100202.06;;;18.22;46.04
13011;BME280;6786;57.632;11.962;2024-03-02T06:52:26;100201.19;;;18.22;45.95
13011;BME280;6786;57.632;11.962;2024-03-02T06:54:55;100195.84;;;18.22;46.01
13011;BME280;6786;57.632;11.962;2024-03-02T06:57:24;100202.06;;;18.22;46.07
13011;BME280;6786;57.632;11.962;2024-03-02T06:59:53;100195.84;;;18.22;46.11
13011;BME280;6786;57.632;11.962;2024-03-02T07:02:25;100193.47;;;18.19;46.03
13011;BME280;6786;57.632;11.962;2024-03-02T07:04:54;100200.34;;;18.21;46.18
13011;BME280;6786;57.632;11.962;2024-03-02T07:07:23;100200.34;;;18.21;46.17
13011;BME280;6786;57.632;11.962;2024-03-02T07:09:51;100202.19;;;18.21;46.03
13011;BME280;6786;57.632;11.962;2024-03-02T07:12:20;100197.53;;;18.23;46.13
13011;BME280;6786;57.632;11.962;2024-03-02T07:14:50;100202.88;;;18.23;46.02
13011;BME280;6786;57.632;11.962;2024-03-02T07:17:36;100192.19;;;18.23;46.09
13011;BME280;6786;57.632;11.962;2024-03-02T07:20:06;100199.53;;;18.21;46.09
13011;BME280;6786;57.632;11.962;2024-03-02T07:22:35;100198.66;;;18.20;46.05
13011;BME280;6786;57.632;11.962;2024-03-02T07:25:08;100190.78;;;18.19;46.23
13011;BME280;6786;57.632;11.962;2024-03-02T07:27:56;100192.50;;;18.20;46.24
13011;BME280;6786;57.632;11.962;2024-03-02T07:30:26;100201.34;;;18.20;46.29
13011;BME280;6786;57.632;11.962;2024-03-02T07:32:56;100187.97;;;18.20;46.17
13011;BME280;6786;57.632;11.962;2024-03-02T07:35:25;100194.16;;;18.21;46.18
13011;BME280;6786;57.632;11.962;2024-03-02T07:37:55;100195.00;;;18.21;46.10
13011;BME280;6786;57.632;11.962;2024-03-02T07:40:24;100197.53;;;18.23;46.25
13011;BME280;6786;57.632;11.962;2024-03-02T07:42:52;100194.84;;;18.23;46.24
13011;BME280;6786;57.632;11.962;2024-03-02T07:45:21;100183.47;;;18.21;46.17
13011;BME280;6786;57.632;11.962;2024-03-02T07:47:51;100192.19;;;18.23;46.14
13011;BME280;6786;57.632;11.962;2024-03-02T07:50:20;100193.03;;;18.23;46.12
13011;BME280;6786;57.632;11.962;2024-03-02T07:52:49;100185.16;;;18.22;46.11
13011;BME280;6786;57.632;11.962;2024-03-02T07:55:17;100181.78;;;18.20;46.25
13011;BME280;6786;57.632;11.962;2024-03-02T07:57:46;100195.84;;;18.22;46.16
13011;BME280;6786;57.632;11.962;2024-03-02T08:00:14;100164.22;;;18.08;46.28
13011;BME280;6786;57.632;11.962;2024-03-02T08:02:43;100187.16;;;18.20;46.16
13011;BME280;6786;57.632;11.962;2024-03-02T08:05:14;100187.16;;;18.20;46.13
13011;BME280;6786;57.632;11.962;2024-03-02T08:07:44;100194.16;;;18.21;46.31
13011;BME280;6786;57.632;11.962;2024-03-02T08:10:13;100185.28;;;18.20;46.20
13011;BME280;6786;57.632;11.962;2024-03-02T08:12:41;100178.41;;;18.18;46.19
13011;BME280;6786;57.632;11.962;2024-03-02T08:15:10;100182.63;;;18.20;46.14
13011;BME280;6786;57.632;11.962;2024-03-02T08:17:39;100178.13;;;18.21;46.24
13011;BME280;6786;57.632;11.962;2024-03-02T08:20:13;100184.63;;;18.18;46.17
13011;BME280;6786;57.632;11.962;2024-03-02T08:22:42;100177.13;;;18.22;46.01
13011;BME280;6786;57.632;11.962;2024-03-02T08:25:10;100175.03;;;18.16;46.29
13011;BME280;6786;57.632;11.962;2024-03-02T08:27:40;100141.28;;;17.96;46.23
13011;BME280;6786;57.632;11.962;2024-03-02T08:30:09;100182.63;;;18.20;46.25
13011;BME280;6786;57.632;11.962;2024-03-02T08:32:38;100188.81;;;18.21;46.23
13011;BME280;6786;57.632;11.962;2024-03-02T08:35:07;100181.78;;;18.20;46.28
13011;BME280;6786;57.632;11.962;2024-03-02T08:37:39;100189.66;;;18.21;46.26
13011;BME280;6786;57.632;11.962;2024-03-02T08:40:08;100178.13;;;18.21;46.21
13011;BME280;6786;57.632;11.962;2024-03-02T08:42:41;100175.44;;;18.21;46.23
13011;BME280;6786;57.632;11.962;2024-03-02T08:45:10;100183.47;;;18.21;46.34
13011;BME280;6786;57.632;11.962;2024-03-02T08:47:38;100180.38;;;18.16;46.34
13011;BME280;6786;57.632;11.962;2024-03-02T08:50:07;100173.34;;;18.15;46.39
13011;BME280;6786;57.632;11.962;2024-03-02T08:52:38;100180.38;;;18.16;46.44
13011;BME280;6786;57.632;11.962;2024-03-02T08:55:07;100173.34;;;18.15;46.49
13011;BME280;6786;57.632;11.962;2024-03-02T08:57:38;100180.09;;;18.19;46.42
13011;BME280;6786;57.632;11.962;2024-03-02T09:00:07;100184.47;;;18.20;46.41
13011;BME280;6786;57.632;11.962;2024-03-02T09:02:37;100180.94;;;18.19;46.54
13011;BME280;6786;57.632;11.962;2024-03-02T09:05:06;100175.44;;;18.21;46.44
13011;BME280;6786;57.632;11.962;2024-03-02T09:07:35;100182.34;;;18.23;46.55
13011;BME280;6786;57.632;11.962;2024-03-02T09:10:08;100181.47;;;18.23;46.50
13011;BME280;6786;57.632;11.962;2024-03-02T09:12:37;100157.88;;;18.09;46.52
13011;BME280;6786;57.632;11.962;2024-03-02T09:15:06;100181.47;;;18.23;46.38
13011;BME280;6786;57.632;11.962;2024-03-02T09:17:35;100184.00;;;18.24;46.45
13011;BME280;6786;57.632;11.962;2024-03-02T09:20:04;100177.84;;;18.24;46.50
13011;BME280;6786;57.632;11.962;2024-03-02T09:22:33;100183.47;;;18.21;46.42
13011;BME280;6786;57.632;11.962;2024-03-02T09:25:02;100184.00;;;18.24;46.51
13011;BME280;6786;57.632;11.962;2024-03-02T09:27:32;100192.19;;;18.23;46.49
13011;BME280;6786;57.632;11.962;2024-03-02T09:30:00;100185.16;;;18.22;46.48
13011;BME280;6786;57.632;11.962;2024-03-02T09:32:29;100181.47;;;18.23;46.48
13011;BME280;6786;57.632;11.962;2024-03-02T09:34:58;100192.19;;;18.23;46.53
13011;BME280;6786;57.632;11.962;2024-03-02T09:37:27;100186.81;;;18.23;46.42
13011;BME280;6786;57.632;11.962;2024-03-02T09:39:55;100193.03;;;18.23;46.56
13011;BME280;6786;57.632;11.962;2024-03-02T09:42:24;100193.03;;;18.23;46.56
13011;BME280;6786;57.632;11.962;2024-03-02T09:44:54;100193.88;;;18.24;46.54
13011;BME280;6786;57.632;11.962;2024-03-02T09:47:23;100199.22;;;18.24;46.50
13011;BME280;6786;57.632;11.962;2024-03-02T09:49:51;100193.03;;;18.23;46.44
13011;BME280;6786;57.632;11.962;2024-03-02T09:52:20;100188.53;;;18.24;46.57
13011;BME280;6786;57.632;11.962;2024-03-02T09:54:49;100155.03;;;18.01;46.52
13011;BME280;6786;57.632;11.962;2024-03-02T09:57:18;100194.72;;;18.24;46.55
13011;BME280;6786;57.632;11.962;2024-03-02T09:59:48;100206.25;;;18.25;46.50
13011;BME280;6786;57.632;11.962;2024-03-02T10:02:18;100195.00;;;18.21;46.64
13011;BME280;6786;57.632;11.962;2024-03-02T10:04:49;100192.78;;;18.17;46.72
13011;BME280;6786;57.632;11.962;2024-03-02T10:07:18;100187.72;;;18.14;46.85
13011;BME280;6786;57.632;11.962;2024-03-02T10:09:48;100187.44;;;18.17;46.78
13011;BME280;6786;57.632;11.962;2024-03-02T10:12:18;100189.09;;;18.18;46.81
13011;BME280;6786;57.632;11.962;2024-03-02T10:14:47;100195.31;;;18.18;46.81
13011;BME280;6786;57.632;11.962;2024-03-02T10:17:19;100195.84;;;18.22;46.69
13011;BME280;6786;57.632;11.962;2024-03-02T10:19:48;100189.66;;;18.21;46.77
13011;BME280;6786;57.632;11.962;2024-03-02T10:22:16;100193.19;;;18.22;46.87
13011;BME280;6786;57.632;11.962;2024-03-02T10:24:45;100190.50;;;18.22;46.83
13011;BME280;6786;57.632;11.962;2024-03-02T10:27:17;100187.69;;;18.23;46.89
13011;BME280;6786;57.632;11.962;2024-03-02T10:29:47;100188.53;;;18.24;46.81
13011;BME280;6786;57.632;11.962;2024-03-02T10:32:15;100188.53;;;18.24;46.69
13011;BME280;6786;57.632;11.962;2024-03-02T10:34:46;100185.16;;;18.22;46.78
13011;BME280;6786;57.632;11.962;2024-03-02T10:37:15;100192.88;;;18.25;46.70
13011;BME280;6786;57.632;11.962;2024-03-02T10:39:46;100188.53;;;18.24;46.61
13011;BME280;6786;57.632;11.962;2024-03-02T10:42:16;100087.00;;;17.67;46.68
13011;BME280;6786;57.632;11.962;2024-03-02T10:44:45;100181.47;;;18.23;46.82
13011;BME280;6786;57.632;11.962;2024-03-02T10:47:15;100189.34;;;18.24;46.70
13011;BME280;6786;57.632;11.962;2024-03-02T10:49:50;100179.50;;;18.25;46.86
13011;BME280;6786;57.632;11.962;2024-03-02T10:52:19;100193.88;;;18.24;46.65
13011;BME280;6786;57.632;11.962;2024-03-02T10:54:50;100189.34;;;18.24;46.73
13011;BME280;6786;57.632;11.962;2024-03-02T10:57:21;100195.56;;;18.25;46.73
13011;BME280;6786;57.632;11.962;2024-03-02T10:59:52;100190.22;;;18.25;46.87
13011;BME280;6786;57.632;11.962;2024-03-02T11:02:21;100186.00;;;18.22;46.66
13011;BME280;6786;57.632;11.962;2024-03-02T11:04:55;100191.88;;;18.26;46.70
13011;BME280;6786;57.632;11.962;2024-03-02T11:07:25;100184.88;;;18.25;46.71
13011;BME280;6786;57.632;11.962;2024-03-02T11:10:00;100180.38;;;18.25;46.63
13011;BME280;6786;57.632;11.962;2024-03-02T11:12:39;100185.88;;;18.24;46.74
13011;BME280;6786;57.632;11.962;2024-03-02T11:15:17;100187.53;;;18.25;46.90
13011;BME280;6786;57.632;11.962;2024-03-02T11:17:46;100187.53;;;18.25;46.74
13011;BME280;6786;57.632;11.962;2024-03-02T11:20:17;100185.72;;;18.25;46.86
13011;BME280;6786;57.632;11.962;2024-03-02T11:22:47;100190.22;;;18.25;46.79
13011;BME280;6786;57.632;11.962;2024-03-02T11:25:23;100185.16;;;18.22;46.86
13011;BME280;6786;57.632;11.962;2024-03-02T11:28:05;100197.25;;;18.26;46.99
13011;BME280;6786;57.632;11.962;2024-03-02T11:30:49;100191.22;;;18.24;46.99
13011;BME280;6786;57.632;11.962;2024-03-02T11:33:27;100187.69;;;18.23;46.88
13011;BME280;6786;57.632;11.962;2024-03-02T11:36:00;100188.53;;;18.24;46.75
13011;BME280;6786;57.632;11.962;2024-03-02T11:38:32;100189.50;;;18.23;46.70
13011;BME280;6786;57.632;11.962;2024-03-02T11:41:02;100195.56;;;18.25;46.81
13011;BME280;6786;57.632;11.962;2024-03-02T11:43:31;100184.88;;;18.25;46.80
13011;BME280;6786;57.632;11.962;2024-03-02T11:46:01;100191.06;;;18.25;46.73
13011;BME280;6786;57.632;11.962;2024-03-02T11:48:35;100202.59;;;18.26;46.81
13011;BME280;6786;57.632;11.962;2024-03-02T11:51:06;100197.25;;;18.26;46.73
13011;BME280;6786;57.632;11.962;2024-03-02T11:53:35;100193.59;;;18.27;46.73
13011;BME280;6786;57.632;11.962;2024-03-02T11:56:07;100202.59;;;18.26;46.77
13011;BME280;6786;57.632;11.962;2024-03-02T11:58:39;100203.59;;;18.25;46.82
13011;BME280;6786;57.632;11.962;2024-03-02T12:01:10;100208.22;;;18.23;46.78
13011;BME280;6786;57.632;11.962;2024-03-02T12:03:39;100213.88;;;18.20;46.77
13011;BME280;6786;57.632;11.962;2024-03-02T12:06:09;100215.16;;;18.25;46.86
13011;BME280;6786;57.632;11.962;2024-03-02T12:08:38;100207.94;;;18.26;46.78
13011;BME280;6786;57.632;11.962;2024-03-02T12:11:06;100211.63;;;18.25;46.79
13011;BME280;6786;57.632;11.962;2024-03-02T12:13:35;100209.94;;;18.24;46.82
13011;BME280;6786;57.632;11.962;2024-03-02T12:16:04;100205.41;;;18.24;46.93
13011;BME280;6786;57.632;11.962;2024-03-02T12:18:33;100204.88;;;18.21;46.90
13011;BME280;6786;57.632;11.962;2024-03-02T12:21:03;100207.94;;;18.26;46.77
13011;BME280;6786;57.632;11.962;2024-03-02T12:23:35;100211.47;;;18.26;46.76
13011;BME280;6786;57.632;11.962;2024-03-02T12:26:03;100204.31;;;18.27;46.83
13011;BME280;6786;57.632;11.962;2024-03-02T12:28:33;100201.63;;;18.27;46.84
13011;BME280;6786;57.632;11.962;2024-03-02T12:31:02;100204.31;;;18.27;46.74
13011;BME280;6786;57.632;11.962;2024-03-02T12:33:30;100204.31;;;18.27;46.76
13011;BME280;6786;57.632;11.962;2024-03-02T12:35:59;100202.59;;;18.26;46.81
13011;BME280;6786;57.632;11.962;2024-03-02T12:38:28;100213.28;;;18.26;46.80
13011;BME280;6786;57.632;11.962;2024-03-02T12:40:58;100207.78;;;18.27;46.79
13011;BME280;6786;57.632;11.962;2024-03-02T12:43:30;100192.78;;;18.17;46.78
13011;BME280;6786;57.632;11.962;2024-03-02T12:45:59;100206.25;;;18.25;46.81
13011;BME280;6786;57.632;11.962;2024-03-02T12:48:28;100207.94;;;18.26;46.75
13011;BME280;6786;57.632;11.962;2024-03-02T12:50:56;100204.31;;;18.27;46.83
13011;BME280;6786;57.632;11.962;2024-03-02T12:53:25;100210.47;;;18.27;46.79
13011;BME280;6786;57.632;11.962;2024-03-02T12:55:54;100209.66;;;18.27;46.85
13011;BME280;6786;57.632;11.962;2024-03-02T12:58:24;100210.47;;;18.27;46.78
13011;BME280;6786;57.632;11.962;2024-03-02T13:01:05;100211.63;;;18.25;47.19
13011;BME280;6786;57.632;11.962;2024-03-02T13:03:35;100215.00;;;18.27;46.74